London, United Kingdom

8:15 AM GMT on February 23, 2017 (GMT +0000)
West Drayton, The Green | | Change Station

Elev 89 ft 51.50 °N, 0.48 °W | Updated 1 second ago

Rain
Rain
47.5 °F
Feels Like 41 °F
N
15.8
Wind Variable Wind from West
Gusts 22.1 mph

Today
High -- | Low -- °F
--% Chance of Precip.
Yesterday
High -- | Low -- °F
Precip. -- in
Pressure 29.27 in
Visibility 4.3 miles
Clouds Mostly Cloudy 2100 ft
Mostly Cloudy 5000 ft
Windchill 41 °F
Dew Point 44 °F
Humidity 88%
Rainfall 0.09 in
Snow Depth Not available.
6:59 AM 5:31 PM
Waning Crescent, 12% visible
SPECI EGWU 230805Z 23020G31KT 7000 -RA BKN021 BKN050 11/07 Q0991 WHT TEMPO 4000 +SHRA BKN014 GRN
Pressure 29.27 in
Visibility 4.3 miles
Clouds Mostly Cloudy 2100 ft
Mostly Cloudy 5000 ft
Windchill 41 °F
Dew Point 44 °F
Humidity 88%
Rainfall 0.09 in
Snow Depth Not available.
6:59 AM 5:31 PM
Waning Crescent, 12% visible
SPECI EGWU 230805Z 23020G31KT 7000 -RA BKN021 BKN050 11/07 Q0991 WHT TEMPO 4000 +SHRA BKN014 GRN

Get Your Daily Forecast Email!

Thanks for signing up!

Be on the lookout for a verification email in your inbox.

You'll start receiving the daily forecast at 8 AM.

×

10-Day Weather Forecast

×

Almanac

Astronomy

Feb. 23, 2017 Rise Set
Actual Time
Civil Twilight
Nautical Twilight
Astronomical Twilight
Moon
Length of Visible Light
Length of Day
Tomorrow will be .
, % of the Moon is Illuminated

Today's Extremes

Country Highs Country Lows

Community

WunderPhotos

Upload Photos

1,962,540 photos uploaded!

WunderBlog® & News

Nearby

Air Quality

  Air Quality AQ Index Pollutant
Not available.

Snow Depth

Station Depth Elevation

Earthquake Activity

City Distance Mag. Time & Date
Minimum magnitude displayed is 2.5.

Coastal Water Temperatures

Place Temperature

Stations

Nearby Weather Stations

Station Location Temp. Windchill Dew Point Humidity Wind Precip. Elev Updated Type